createdAt,value
2018-07-25T00:00:25.486Z,49.2
2018-07-25T00:01:15.605Z,49.2
2018-07-25T00:02:05.398Z,49.2
2018-07-25T00:02:55.136Z,49.2
2018-07-25T00:03:46.048Z,49.1
2018-07-25T00:04:35.856Z,49.1
2018-07-25T00:05:25.621Z,49.1
2018-07-25T00:06:16.332Z,49.2
2018-07-25T00:07:05.735Z,49.1
2018-07-25T00:07:56.341Z,49.1
2018-07-25T00:08:45.714Z,49.1
2018-07-25T00:09:36.241Z,49.1
2018-07-25T00:10:26.567Z,49.1
2018-07-25T00:11:16.061Z,49.1
2018-07-25T00:12:06.693Z,49.1
2018-07-25T00:12:56.786Z,49.1
2018-07-25T00:13:46.271Z,49.1
2018-07-25T00:14:36.308Z,49.1
2018-07-25T00:15:26.404Z,49.1
2018-07-25T00:16:16.728Z,49.1
2018-07-25T00:17:06.279Z,49.1
2018-07-25T00:17:56.624Z,49.1
2018-07-25T00:18:46.903Z,49.1
2018-07-25T00:19:37.056Z,49.1
2018-07-25T00:20:26.862Z,49.1
2018-07-25T00:21:16.847Z,49.1
2018-07-25T00:22:07.205Z,49.1
2018-07-25T00:22:56.992Z,49.1
2018-07-25T00:23:47.019Z,49.1
2018-07-25T00:24:36.815Z,49.1
2018-07-25T00:25:27.457Z,49.1
2018-07-25T00:26:17.513Z,49
2018-07-25T00:27:07.270Z,49.1
2018-07-25T00:27:57.684Z,49.1
2018-07-25T00:28:47.711Z,49
2018-07-25T00:29:37.759Z,49
2018-07-25T00:30:27.827Z,49
2018-07-25T00:31:17.600Z,49
2018-07-25T00:32:08.240Z,49
2018-07-25T00:32:58.035Z,49
2018-07-25T00:33:48.082Z,49
2018-07-25T00:34:38.407Z,49
2018-07-25T00:35:28.209Z,49
2018-07-25T00:36:18.816Z,49
2018-07-25T00:37:08.633Z,49
2018-07-25T00:37:58.116Z,48.9
2018-07-25T00:38:48.754Z,48.9
2018-07-25T00:39:38.530Z,48.9
2018-07-25T00:40:28.573Z,48.9
2018-07-25T00:41:18.616Z,48.9
2018-07-25T00:42:09.009Z,48.9
2018-07-25T00:42:58.753Z,48.9
2018-07-25T00:43:48.556Z,48.9
2018-07-25T00:44:39.243Z,48.9
2018-07-25T00:45:29.265Z,48.9
2018-07-25T00:46:19.026Z,48.9
2018-07-25T00:47:09.104Z,48.9
2018-07-25T00:47:59.495Z,48.9
2018-07-25T00:48:49.272Z,48.9
2018-07-25T00:49:39.049Z,48.9
2018-07-25T00:50:28.851Z,48.9
2018-07-25T00:51:19.713Z,48.9
2018-07-25T00:52:08.963Z,48.9
2018-07-25T00:52:59.883Z,48.9
2018-07-25T00:53:49.365Z,48.9
2018-07-25T00:54:39.418Z,48.9
2018-07-25T00:55:30.513Z,48.9
2018-07-25T21:28:39.471Z,40.8
2018-07-25T21:29:29.715Z,40.8
2018-07-25T21:30:19.783Z,40.8
2018-07-25T21:31:09.997Z,40.8
2018-07-25T21:31:59.984Z,40.8
2018-07-25T21:32:49.741Z,40.8
2018-07-25T21:33:39.802Z,40.8
2018-07-25T21:34:30.098Z,40.8
2018-07-25T21:35:20.183Z,40.7
2018-07-25T21:36:10.743Z,40.7
2018-07-25T21:37:00.327Z,40.7
2018-07-25T21:37:50.105Z,40.7
2018-07-25T21:38:40.136Z,40.7
2018-07-25T21:39:30.281Z,40.7
2018-07-25T21:40:20.849Z,40.7
2018-07-25T21:41:09.741Z,40.7
2018-07-25T21:42:00.379Z,40.7
2018-07-25T21:42:50.976Z,40.7
2018-07-25T21:43:41.074Z,40.7
2018-07-25T21:44:30.579Z,40.7
2018-07-25T21:45:21.194Z,40.7
2018-07-25T21:46:11.247Z,40.6
2018-07-25T21:47:01.361Z,40.7
2018-07-25T21:47:50.537Z,40.6
2018-07-25T21:48:41.204Z,40.6
2018-07-25T21:49:31.243Z,40.6
2018-07-25T21:50:21.264Z,40.6
2018-07-25T21:51:11.588Z,40.6
2018-07-25T21:52:01.406Z,40.6
2018-07-25T21:52:51.510Z,40.6
2018-07-25T21:53:41.821Z,40.6
2018-07-25T21:54:31.380Z,40.6
2018-07-25T21:55:21.340Z,40.6
2018-07-25T21:56:11.246Z,40.6
2018-07-25T21:57:01.893Z,40.6
2018-07-25T21:57:51.870Z,40.6
2018-07-25T21:58:42.210Z,40.6
2018-07-25T21:59:31.453Z,40.6
2018-07-25T22:00:22.337Z,40.6
2018-07-25T22:01:11.833Z,40.6
2018-07-25T22:02:01.609Z,40.6
2018-07-25T22:02:52.230Z,40.6
2018-07-25T22:03:42.186Z,40.6
2018-07-25T22:04:32.365Z,40.6
2018-07-25T22:05:22.687Z,40.6
2018-07-25T22:06:12.723Z,40.6
2018-07-25T22:07:02.533Z,40.6
2018-07-25T22:07:52.418Z,40.6
2018-07-25T22:08:42.212Z,40.6
2018-07-25T22:09:32.240Z,40.6
2018-07-25T22:10:22.315Z,40.6
2018-07-25T22:11:12.360Z,40.5
2018-07-25T22:12:02.722Z,40.5
2018-07-25T22:12:52.838Z,40.6
2018-07-25T22:13:43.356Z,40.5
2018-07-25T22:14:33.248Z,40.5
2018-07-25T22:15:23.201Z,40.4
2018-07-25T22:16:13.278Z,40.4
2018-07-25T22:17:02.768Z,40.4
2018-07-25T22:17:53.122Z,40.4
2018-07-25T22:18:42.900Z,40.4
2018-07-25T22:19:33.564Z,40.4
2018-07-25T22:20:23.890Z,40.4
2018-07-25T22:21:13.370Z,40.4
2018-07-25T22:22:03.734Z,40.4
2018-07-25T22:22:53.779Z,40.4
2018-07-25T22:23:43.865Z,40.4
2018-07-25T22:24:33.899Z,40.4
2018-07-25T22:25:23.967Z,40.3
2018-07-25T22:26:13.992Z,40.3
2018-07-25T22:27:03.246Z,40.3
2018-07-25T22:27:53.447Z,40.3
2018-07-25T22:28:43.221Z,40.3
2018-07-25T22:29:34.087Z,40.3
2018-07-25T22:30:24.784Z,40.3
2018-07-25T22:31:13.136Z,40.3
2018-07-25T22:32:03.531Z,40.3
2018-07-25T22:32:53.891Z,40.3
2018-07-25T22:33:43.828Z,40.3
2018-07-25T22:34:33.341Z,40.3
2018-07-25T22:35:23.770Z,40.3
2018-07-25T22:36:14.083Z,40.3
2018-07-25T22:37:04.130Z,40.3
2018-07-25T22:37:55.280Z,40.3
2018-07-25T22:38:44.164Z,40.3
2018-07-25T22:39:34.523Z,40.3
2018-07-25T22:40:24.371Z,40.3
2018-07-25T22:41:14.356Z,40.3
2018-07-25T22:42:03.528Z,40.3
2018-07-25T22:42:54.483Z,40.3
2018-07-25T22:43:44.241Z,40.3
2018-07-25T22:44:33.903Z,40.3
2018-07-25T22:45:24.576Z,40.3
2018-07-25T22:46:14.486Z,40.3
2018-07-25T22:47:05.414Z,40.3
2018-07-25T22:47:54.947Z,40.3
2018-07-25T22:48:44.057Z,40.3
2018-07-25T22:49:35.335Z,40.2
2018-07-25T22:50:24.782Z,40.2
2018-07-25T22:51:14.948Z,40.3
2018-07-25T22:52:05.512Z,40.2
2018-07-25T22:52:55.424Z,40.2
2018-07-25T22:53:45.799Z,40.2
2018-07-25T22:54:36.544Z,40.2
2018-07-25T22:55:25.120Z,40.2
2018-07-25T22:56:15.617Z,40.2
2018-07-25T22:57:04.992Z,40.2
2018-07-25T22:57:56.174Z,40.2
2018-07-25T22:58:46.829Z,40.2
2018-07-25T22:59:36.063Z,40.2
2018-07-25T23:00:26.446Z,40.2
2018-07-25T23:01:16.801Z,40.2
2018-07-25T23:02:06.799Z,40.2
2018-07-25T23:02:56.827Z,40.2
2018-07-25T23:03:46.879Z,40.2
2018-07-25T23:04:36.438Z,40.1
2018-07-25T23:05:26.847Z,40.2
2018-07-25T23:06:16.075Z,40.1
2018-07-25T23:07:06.409Z,40.1
2018-07-25T23:07:56.693Z,40.1
2018-07-25T23:08:47.074Z,40.1
2018-07-25T23:09:36.864Z,40.1
2018-07-25T23:10:27.413Z,40.1
2018-07-25T23:11:17.278Z,40.1
2018-07-25T23:12:06.793Z,40.1
2018-07-25T23:12:57.298Z,40.1
2018-07-25T23:13:47.371Z,40.1
2018-07-25T23:14:38.312Z,40.1
2018-07-25T23:15:27.338Z,40.1
2018-07-25T23:16:17.370Z,40.1
2018-07-25T23:17:07.153Z,40.1
2018-07-25T23:17:57.778Z,40.1
2018-07-25T23:18:48.045Z,40.1
2018-07-25T23:19:37.900Z,40.1
2018-07-25T23:20:27.965Z,40.1
2018-07-25T23:21:17.765Z,40.1
2018-07-25T23:22:07.899Z,40.1
2018-07-25T23:22:57.895Z,40.1
2018-07-25T23:23:48.218Z,40.1
2018-07-25T23:24:38.000Z,40.1
2018-07-25T23:25:28.314Z,40.1
2018-07-25T23:26:18.165Z,40.1
2018-07-25T23:27:08.160Z,40.1
2018-07-25T23:27:59.017Z,40.1
2018-07-25T23:28:48.821Z,40.1
2018-07-25T23:29:38.407Z,40
2018-07-25T23:30:28.774Z,40.1
2018-07-25T23:31:18.791Z,40
2018-07-25T23:32:08.835Z,40
2018-07-25T23:32:58.907Z,40
2018-07-25T23:33:48.416Z,40
2018-07-25T23:34:39.296Z,40
2018-07-25T23:35:29.359Z,40
2018-07-25T23:36:19.208Z,40
2018-07-25T23:37:09.584Z,40
2018-07-25T23:37:58.795Z,40
2018-07-25T23:38:49.102Z,40
2018-07-25T23:39:38.877Z,40
2018-07-25T23:40:29.752Z,40
2018-07-25T23:41:19.551Z,39.9
2018-07-25T23:42:10.144Z,39.9
2018-07-25T23:43:00.217Z,40
2018-07-25T23:43:50.235Z,39.9
2018-07-25T23:44:39.740Z,40
2018-07-25T23:45:30.388Z,39.9
2018-07-25T23:46:19.608Z,39.9
2018-07-25T23:47:09.925Z,39.9
2018-07-25T23:48:00.245Z,39.9
2018-07-25T23:48:50.343Z,39.9
2018-07-25T23:49:40.725Z,39.9
2018-07-25T23:50:30.485Z,39.9
2018-07-25T23:51:20.855Z,39.9
2018-07-25T23:52:10.889Z,39.9
2018-07-25T23:53:00.695Z,39.9
2018-07-25T23:53:50.988Z,39.9
2018-07-25T23:54:41.052Z,39.9
2018-07-25T23:55:30.850Z,39.9
2018-07-25T23:56:20.361Z,39.9
2018-07-25T23:57:11.019Z,39.9
2018-07-25T23:58:01.334Z,39.9
2018-07-25T23:58:50.824Z,39.9
2018-07-25T23:59:41.472Z,39.9
